sensor_id;sensor_type;location;lat;lon;timestamp;temperature;humidity
25188;DHT22;13141;50.414;8.050;2023-04-19T00:00:47;12.80;99.90
25188;DHT22;13141;50.414;8.050;2023-04-19T00:03:13;12.90;99.90
25188;DHT22;13141;50.414;8.050;2023-04-19T00:05:40;12.80;99.90
25188;DHT22;13141;50.414;8.050;2023-04-19T00:08:06;12.80;99.90
25188;DHT22;13141;50.414;8.050;2023-04-19T00:10:33;12.80;99.90
25188;DHT22;13141;50.414;8.050;2023-04-19T00:12:58;12.80;99.90
25188;DHT22;13141;50.414;8.050;2023-04-19T00:15:24;12.80;99.90
25188;DHT22;13141;50.414;8.050;2023-04-19T00:17:51;12.80;99.90
25188;DHT22;13141;50.414;8.050;2023-04-19T00:20:17;12.70;99.90
25188;DHT22;13141;50.414;8.050;2023-04-19T00:22:44;12.70;99.90
25188;DHT22;13141;50.414;8.050;2023-04-19T00:25:10;12.80;99.90
25188;DHT22;13141;50.414;8.050;2023-04-19T00:27:36;12.70;99.90
25188;DHT22;13141;50.414;8.050;2023-04-19T00:30:02;12.70;99.90
25188;DHT22;13141;50.414;8.050;2023-04-19T00:32:27;12.70;99.90
25188;DHT22;13141;50.414;8.050;2023-04-19T00:34:53;12.80;99.90
25188;DHT22;13141;50.414;8.050;2023-04-19T00:37:19;12.70;99.90
25188;DHT22;13141;50.414;8.050;2023-04-19T00:39:46;12.70;99.90
25188;DHT22;13141;50.414;8.050;2023-04-19T00:42:12;12.60;99.90
25188;DHT22;13141;50.414;8.050;2023-04-19T00:44:37;12.60;99.90
25188;DHT22;13141;50.414;8.050;2023-04-19T00:47:03;12.60;99.90
25188;DHT22;13141;50.414;8.050;2023-04-19T00:49:29;12.50;99.90
25188;DHT22;13141;50.414;8.050;2023-04-19T00:51:55;12.50;99.90
25188;DHT22;13141;50.414;8.050;2023-04-19T00:54:22;12.60;99.90
25188;DHT22;13141;50.414;8.050;2023-04-19T00:56:50;12.50;99.90
25188;DHT22;13141;50.414;8.050;2023-04-19T00:59:16;12.60;99.90
25188;DHT22;13141;50.414;8.050;2023-04-19T01:01:42;12.50;99.90
25188;DHT22;13141;50.414;8.050;2023-04-19T01:04:08;12.50;99.90
25188;DHT22;13141;50.414;8.050;2023-04-19T01:06:34;12.50;99.90
25188;DHT22;13141;50.414;8.050;2023-04-19T01:09:00;12.50;99.90
25188;DHT22;13141;50.414;8.050;2023-04-19T01:11:27;12.40;99.90
25188;DHT22;13141;50.414;8.050;2023-04-19T01:13:54;12.40;99.90
25188;DHT22;13141;50.414;8.050;2023-04-19T01:16:20;12.40;99.90
25188;DHT22;13141;50.414;8.050;2023-04-19T01:18:46;12.40;99.90
25188;DHT22;13141;50.414;8.050;2023-04-19T01:21:11;12.40;99.90
25188;DHT22;13141;50.414;8.050;2023-04-19T01:23:39;12.40;99.90
25188;DHT22;13141;50.414;8.050;2023-04-19T01:26:04;12.40;99.90
25188;DHT22;13141;50.414;8.050;2023-04-19T01:28:30;12.40;99.90
25188;DHT22;13141;50.414;8.050;2023-04-19T01:30:56;12.40;99.90
25188;DHT22;13141;50.414;8.050;2023-04-19T01:33:22;12.40;99.90
25188;DHT22;13141;50.414;8.050;2023-04-19T01:35:48;12.40;99.90
25188;DHT22;13141;50.414;8.050;2023-04-19T01:38:14;12.40;99.90
25188;DHT22;13141;50.414;8.050;2023-04-19T01:40:41;12.40;99.90
25188;DHT22;13141;50.414;8.050;2023-04-19T01:43:07;12.40;99.90
25188;DHT22;13141;50.414;8.050;2023-04-19T01:45:33;12.40;99.90
25188;DHT22;13141;50.414;8.050;2023-04-19T01:47:59;12.40;99.90
25188;DHT22;13141;50.414;8.050;2023-04-19T01:50:24;12.40;99.90
25188;DHT22;13141;50.414;8.050;2023-04-19T01:52:50;12.30;99.90
25188;DHT22;13141;50.414;8.050;2023-04-19T01:55:16;12.30;99.90
25188;DHT22;13141;50.414;8.050;2023-04-19T01:57:43;12.30;99.90
25188;DHT22;13141;50.414;8.050;2023-04-19T02:00:09;12.30;99.90
25188;DHT22;13141;50.414;8.050;2023-04-19T02:02:36;12.20;99.90
25188;DHT22;13141;50.414;8.050;2023-04-19T02:05:01;12.20;99.90
25188;DHT22;13141;50.414;8.050;2023-04-19T02:07:27;12.20;99.90
25188;DHT22;13141;50.414;8.050;2023-04-19T02:09:52;12.20;99.90
25188;DHT22;13141;50.414;8.050;2023-04-19T02:12:18;12.10;99.90
25188;DHT22;13141;50.414;8.050;2023-04-19T02:14:45;12.00;99.90
25188;DHT22;13141;50.414;8.050;2023-04-19T02:17:11;12.00;99.90
25188;DHT22;13141;50.414;8.050;2023-04-19T02:19:37;12.00;99.90
25188;DHT22;13141;50.414;8.050;2023-04-19T02:22:02;11.90;99.90
25188;DHT22;13141;50.414;8.050;2023-04-19T02:24:28;11.90;99.90
25188;DHT22;13141;50.414;8.050;2023-04-19T02:26:54;11.90;99.90
25188;DHT22;13141;50.414;8.050;2023-04-19T02:29:19;11.90;99.90
25188;DHT22;13141;50.414;8.050;2023-04-19T02:31:46;11.80;99.90
25188;DHT22;13141;50.414;8.050;2023-04-19T02:34:12;11.80;99.90
25188;DHT22;13141;50.414;8.050;2023-04-19T02:36:38;11.80;99.90
25188;DHT22;13141;50.414;8.050;2023-04-19T02:39:03;11.80;99.90
25188;DHT22;13141;50.414;8.050;2023-04-19T02:41:29;11.80;99.90
25188;DHT22;13141;50.414;8.050;2023-04-19T02:43:55;11.80;99.90
25188;DHT22;13141;50.414;8.050;2023-04-19T02:46:20;11.80;99.90
25188;DHT22;13141;50.414;8.050;2023-04-19T02:48:47;11.80;99.90
25188;DHT22;13141;50.414;8.050;2023-04-19T02:51:16;11.60;99.90
25188;DHT22;13141;50.414;8.050;2023-04-19T02:53:42;11.60;99.90
25188;DHT22;13141;50.414;8.050;2023-04-19T02:56:08;11.60;99.90
25188;DHT22;13141;50.414;8.050;2023-04-19T02:58:34;11.60;99.90
25188;DHT22;13141;50.414;8.050;2023-04-19T03:01:00;11.60;99.90
25188;DHT22;13141;50.414;8.050;2023-04-19T03:03:25;11.60;99.90
25188;DHT22;13141;50.414;8.050;2023-04-19T03:05:53;11.60;99.90
25188;DHT22;13141;50.414;8.050;2023-04-19T03:08:18;11.70;99.90
25188;DHT22;13141;50.414;8.050;2023-04-19T03:10:44;11.60;99.90
25188;DHT22;13141;50.414;8.050;2023-04-19T03:13:10;11.60;99.90
25188;DHT22;13141;50.414;8.050;2023-04-19T03:15:36;11.70;99.90
25188;DHT22;13141;50.414;8.050;2023-04-19T03:18:01;11.60;99.90
25188;DHT22;13141;50.414;8.050;2023-04-19T03:20:27;11.60;99.90
25188;DHT22;13141;50.414;8.050;2023-04-19T03:22:55;11.60;99.90
25188;DHT22;13141;50.414;8.050;2023-04-19T03:25:20;11.60;99.90
25188;DHT22;13141;50.414;8.050;2023-04-19T03:27:46;11.70;99.90
25188;DHT22;13141;50.414;8.050;2023-04-19T03:30:12;11.80;99.90
25188;DHT22;13141;50.414;8.050;2023-04-19T03:32:38;11.80;99.90
25188;DHT22;13141;50.414;8.050;2023-04-19T03:35:05;11.80;99.90
25188;DHT22;13141;50.414;8.050;2023-04-19T03:37:30;11.80;99.90
25188;DHT22;13141;50.414;8.050;2023-04-19T03:39:58;11.90;99.90
25188;DHT22;13141;50.414;8.050;2023-04-19T03:42:23;11.90;99.90
25188;DHT22;13141;50.414;8.050;2023-04-19T03:44:49;11.90;99.90
25188;DHT22;13141;50.414;8.050;2023-04-19T03:47:14;12.00;99.90
25188;DHT22;13141;50.414;8.050;2023-04-19T03:49:40;11.90;99.90
25188;DHT22;13141;50.414;8.050;2023-04-19T03:52:06;11.90;99.90
25188;DHT22;13141;50.414;8.050;2023-04-19T03:54:31;12.00;99.90
25188;DHT22;13141;50.414;8.050;2023-04-19T03:56:59;12.00;99.90
25188;DHT22;13141;50.414;8.050;2023-04-19T03:59:24;12.00;99.90
25188;DHT22;13141;50.414;8.050;2023-04-19T04:01:50;12.00;99.90
25188;DHT22;13141;50.414;8.050;2023-04-19T04:04:16;12.10;99.90
25188;DHT22;13141;50.414;8.050;2023-04-19T04:06:42;12.10;99.90
25188;DHT22;13141;50.414;8.050;2023-04-19T04:09:08;12.10;99.90
25188;DHT22;13141;50.414;8.050;2023-04-19T04:11:33;12.10;99.90
25188;DHT22;13141;50.414;8.050;2023-04-19T04:14:01;12.10;99.90
25188;DHT22;13141;50.414;8.050;2023-04-19T04:16:26;12.00;99.90
25188;DHT22;13141;50.414;8.050;2023-04-19T04:18:52;12.00;99.90
25188;DHT22;13141;50.414;8.050;2023-04-19T04:21:17;12.00;99.90
25188;DHT22;13141;50.414;8.050;2023-04-19T04:23:43;12.00;99.90
25188;DHT22;13141;50.414;8.050;2023-04-19T04:26:09;12.00;99.90
25188;DHT22;13141;50.414;8.050;2023-04-19T04:28:35;12.10;99.90
25188;DHT22;13141;50.414;8.050;2023-04-19T04:31:02;12.00;99.90
25188;DHT22;13141;50.414;8.050;2023-04-19T04:33:27;12.00;99.90
25188;DHT22;13141;50.414;8.050;2023-04-19T04:35:54;12.00;99.90
25188;DHT22;13141;50.414;8.050;2023-04-19T04:38:20;12.00;99.90
25188;DHT22;13141;50.414;8.050;2023-04-19T04:40:48;12.10;99.90
25188;DHT22;13141;50.414;8.050;2023-04-19T04:43:14;12.10;99.90
25188;DHT22;13141;50.414;8.050;2023-04-19T04:45:40;12.10;99.90
25188;DHT22;13141;50.414;8.050;2023-04-19T04:48:07;12.10;99.90
25188;DHT22;13141;50.414;8.050;2023-04-19T04:50:33;12.10;99.90
25188;DHT22;13141;50.414;8.050;2023-04-19T04:52:58;12.10;99.90
25188;DHT22;13141;50.414;8.050;2023-04-19T04:55:24;12.30;99.90
25188;DHT22;13141;50.414;8.050;2023-04-19T04:57:50;12.10;99.90
25188;DHT22;13141;50.414;8.050;2023-04-19T05:00:16;12.10;99.90
25188;DHT22;13141;50.414;8.050;2023-04-19T05:02:42;12.10;99.90
25188;DHT22;13141;50.414;8.050;2023-04-19T05:05:10;12.10;99.90
25188;DHT22;13141;50.414;8.050;2023-04-19T05:07:38;12.20;99.90
25188;DHT22;13141;50.414;8.050;2023-04-19T05:10:04;12.10;99.90
25188;DHT22;13141;50.414;8.050;2023-04-19T05:12:30;12.40;99.90
25188;DHT22;13141;50.414;8.050;2023-04-19T05:14:56;12.10;99.90
25188;DHT22;13141;50.414;8.050;2023-04-19T05:17:21;12.20;99.90
25188;DHT22;13141;50.414;8.050;2023-04-19T05:19:47;12.40;99.90
25188;DHT22;13141;50.414;8.050;2023-04-19T05:22:14;12.30;99.90
25188;DHT22;13141;50.414;8.050;2023-04-19T05:24:40;12.20;99.90
25188;DHT22;13141;50.414;8.050;2023-04-19T05:27:06;12.20;99.90
25188;DHT22;13141;50.414;8.050;2023-04-19T05:29:32;12.20;99.90
25188;DHT22;13141;50.414;8.050;2023-04-19T05:31:58;12.20;99.90
25188;DHT22;13141;50.414;8.050;2023-04-19T05:34:24;12.30;99.90
25188;DHT22;13141;50.414;8.050;2023-04-19T05:36:49;12.30;99.90
25188;DHT22;13141;50.414;8.050;2023-04-19T05:39:16;12.30;99.90
25188;DHT22;13141;50.414;8.050;2023-04-19T05:41:42;12.30;99.90
25188;DHT22;13141;50.414;8.050;2023-04-19T05:44:08;12.30;99.90
25188;DHT22;13141;50.414;8.050;2023-04-19T05:46:34;12.30;99.90
25188;DHT22;13141;50.414;8.050;2023-04-19T05:49:00;12.30;99.90
25188;DHT22;13141;50.414;8.050;2023-04-19T05:51:25;12.20;99.90
25188;DHT22;13141;50.414;8.050;2023-04-19T05:53:51;12.20;99.90
25188;DHT22;13141;50.414;8.050;2023-04-19T05:56:19;12.30;99.90
25188;DHT22;13141;50.414;8.050;2023-04-19T05:58:48;12.30;99.90
25188;DHT22;13141;50.414;8.050;2023-04-19T06:01:14;12.30;99.90
25188;DHT22;13141;50.414;8.050;2023-04-19T06:03:40;12.30;99.90
25188;DHT22;13141;50.414;8.050;2023-04-19T06:06:15;12.30;99.90
25188;DHT22;13141;50.414;8.050;2023-04-19T06:08:42;12.30;99.90
25188;DHT22;13141;50.414;8.050;2023-04-19T06:11:08;12.30;99.90
25188;DHT22;13141;50.414;8.050;2023-04-19T06:13:35;12.30;99.90
25188;DHT22;13141;50.414;8.050;2023-04-19T06:16:01;12.40;99.90
25188;DHT22;13141;50.414;8.050;2023-04-19T06:18:27;12.40;99.90
25188;DHT22;13141;50.414;8.050;2023-04-19T06:20:53;12.20;99.90
25188;DHT22;13141;50.414;8.050;2023-04-19T06:23:19;12.40;99.90
25188;DHT22;13141;50.414;8.050;2023-04-19T06:25:45;12.60;99.90
25188;DHT22;13141;50.414;8.050;2023-04-19T06:28:11;12.40;99.90
25188;DHT22;13141;50.414;8.050;2023-04-19T06:30:38;12.50;99.90
25188;DHT22;13141;50.414;8.050;2023-04-19T06:33:04;12.60;99.90
25188;DHT22;13141;50.414;8.050;2023-04-19T06:35:30;12.60;99.90
25188;DHT22;13141;50.414;8.050;2023-04-19T06:37:55;12.60;99.90
25188;DHT22;13141;50.414;8.050;2023-04-19T06:40:22;12.70;99.90
25188;DHT22;13141;50.414;8.050;2023-04-19T06:42:47;12.70;99.90
25188;DHT22;13141;50.414;8.050;2023-04-19T06:45:13;12.70;99.90
25188;DHT22;13141;50.414;8.050;2023-04-19T06:47:40;12.70;99.90
25188;DHT22;13141;50.414;8.050;2023-04-19T06:50:07;12.70;99.90
25188;DHT22;13141;50.414;8.050;2023-04-19T06:52:34;12.80;99.90
25188;DHT22;13141;50.414;8.050;2023-04-19T06:54:59;12.80;99.90
25188;DHT22;13141;50.414;8.050;2023-04-19T06:57:25;12.90;99.90
25188;DHT22;13141;50.414;8.050;2023-04-19T06:59:52;13.00;99.90
25188;DHT22;13141;50.414;8.050;2023-04-19T07:02:18;13.10;99.90
25188;DHT22;13141;50.414;8.050;2023-04-19T07:04:45;13.10;99.90
25188;DHT22;13141;50.414;8.050;2023-04-19T07:07:11;13.10;99.90
25188;DHT22;13141;50.414;8.050;2023-04-19T07:09:37;13.20;99.90
25188;DHT22;13141;50.414;8.050;2023-04-19T07:12:03;13.30;99.90
25188;DHT22;13141;50.414;8.050;2023-04-19T07:14:28;13.30;99.90
25188;DHT22;13141;50.414;8.050;2023-04-19T07:16:54;13.60;99.90
25188;DHT22;13141;50.414;8.050;2023-04-19T07:19:20;13.40;99.90
25188;DHT22;13141;50.414;8.050;2023-04-19T07:21:47;13.40;99.90
25188;DHT22;13141;50.414;8.050;2023-04-19T07:24:13;13.50;99.90
25188;DHT22;13141;50.414;8.050;2023-04-19T07:26:39;13.40;99.90
25188;DHT22;13141;50.414;8.050;2023-04-19T07:29:05;13.30;99.90
25188;DHT22;13141;50.414;8.050;2023-04-19T07:31:30;12.70;99.90
25188;DHT22;13141;50.414;8.050;2023-04-19T07:33:56;13.30;99.90
25188;DHT22;13141;50.414;8.050;2023-04-19T07:36:22;13.20;99.90
25188;DHT22;13141;50.414;8.050;2023-04-19T07:38:49;13.20;99.90
25188;DHT22;13141;50.414;8.050;2023-04-19T07:41:15;13.20;99.90
25188;DHT22;13141;50.414;8.050;2023-04-19T07:43:41;12.90;99.90
25188;DHT22;13141;50.414;8.050;2023-04-19T07:46:08;13.20;99.90
25188;DHT22;13141;50.414;8.050;2023-04-19T07:48:35;13.90;99.90
25188;DHT22;13141;50.414;8.050;2023-04-19T07:51:07;13.90;99.90
25188;DHT22;13141;50.414;8.050;2023-04-19T07:53:33;14.10;99.90
25188;DHT22;13141;50.414;8.050;2023-04-19T07:56:00;14.20;99.90
25188;DHT22;13141;50.414;8.050;2023-04-19T07:58:26;14.40;99.90
25188;DHT22;13141;50.414;8.050;2023-04-19T08:00:52;14.50;99.90
25188;DHT22;13141;50.414;8.050;2023-04-19T08:03:18;14.50;99.90
25188;DHT22;13141;50.414;8.050;2023-04-19T08:05:44;14.60;99.70
25188;DHT22;13141;50.414;8.050;2023-04-19T08:08:10;14.70;99.90
25188;DHT22;13141;50.414;8.050;2023-04-19T08:10:35;14.90;99.80
25188;DHT22;13141;50.414;8.050;2023-04-19T08:13:03;14.80;99.90
25188;DHT22;13141;50.414;8.050;2023-04-19T08:15:28;14.80;99.50
25188;DHT22;13141;50.414;8.050;2023-04-19T08:17:54;14.80;99.90
25188;DHT22;13141;50.414;8.050;2023-04-19T08:20:20;14.80;99.70
25188;DHT22;13141;50.414;8.050;2023-04-19T08:22:47;15.10;99.80
25188;DHT22;13141;50.414;8.050;2023-04-19T08:25:12;15.20;99.90
25188;DHT22;13141;50.414;8.050;2023-04-19T08:27:38;15.10;99.40
25188;DHT22;13141;50.414;8.050;2023-04-19T08:30:06;15.60;99.60
25188;DHT22;13141;50.414;8.050;2023-04-19T08:32:32;15.60;99.00
25188;DHT22;13141;50.414;8.050;2023-04-19T08:34:58;15.70;99.70
25188;DHT22;13141;50.414;8.050;2023-04-19T08:37:24;15.70;99.20
25188;DHT22;13141;50.414;8.050;2023-04-19T08:39:49;15.60;98.50
25188;DHT22;13141;50.414;8.050;2023-04-19T08:42:15;15.70;98.70
25188;DHT22;13141;50.414;8.050;2023-04-19T08:44:41;15.90;99.10
25188;DHT22;13141;50.414;8.050;2023-04-19T08:47:10;16.10;99.30
25188;DHT22;13141;50.414;8.050;2023-04-19T08:49:38;16.30;98.60
25188;DHT22;13141;50.414;8.050;2023-04-19T08:52:05;16.50;98.40
25188;DHT22;13141;50.414;8.050;2023-04-19T08:54:33;16.60;98.90
25188;DHT22;13141;50.414;8.050;2023-04-19T08:56:59;16.80;98.80
25188;DHT22;13141;50.414;8.050;2023-04-19T08:59:25;16.60;98.80
25188;DHT22;13141;50.414;8.050;2023-04-19T09:01:51;16.60;98.50
25188;DHT22;13141;50.414;8.050;2023-04-19T09:04:18;16.60;98.10
25188;DHT22;13141;50.414;8.050;2023-04-19T09:06:44;16.60;99.00
25188;DHT22;13141;50.414;8.050;2023-04-19T09:09:13;16.60;97.40
25188;DHT22;13141;50.414;8.050;2023-04-19T09:11:39;16.20;97.20
25188;DHT22;13141;50.414;8.050;2023-04-19T09:14:09;16.80;96.60
25188;DHT22;13141;50.414;8.050;2023-04-19T09:16:35;16.90;97.30
25188;DHT22;13141;50.414;8.050;2023-04-19T09:19:01;17.00;96.80
25188;DHT22;13141;50.414;8.050;2023-04-19T09:21:28;17.20;97.40
25188;DHT22;13141;50.414;8.050;2023-04-19T09:23:54;17.40;97.10
25188;DHT22;13141;50.414;8.050;2023-04-19T09:26:19;17.50;97.00
25188;DHT22;13141;50.414;8.050;2023-04-19T09:28:55;17.70;96.30
25188;DHT22;13141;50.414;8.050;2023-04-19T09:31:21;17.90;96.90
25188;DHT22;13141;50.414;8.050;2023-04-19T09:33:46;18.10;96.50
25188;DHT22;13141;50.414;8.050;2023-04-19T09:36:25;18.20;96.50
25188;DHT22;13141;50.414;8.050;2023-04-19T09:38:53;18.40;96.20
25188;DHT22;13141;50.414;8.050;2023-04-19T09:41:19;18.50;95.40
25188;DHT22;13141;50.414;8.050;2023-04-19T09:43:45;18.60;94.70
25188;DHT22;13141;50.414;8.050;2023-04-19T09:46:29;18.80;96.10
25188;DHT22;13141;50.414;8.050;2023-04-19T09:49:00;19.10;95.70
25188;DHT22;13141;50.414;8.050;2023-04-19T09:51:39;19.30;94.60
25188;DHT22;13141;50.414;8.050;2023-04-19T09:54:08;19.50;94.00
25188;DHT22;13141;50.414;8.050;2023-04-19T09:56:35;19.80;93.50
25188;DHT22;13141;50.414;8.050;2023-04-19T09:59:02;20.00;93.00
25188;DHT22;13141;50.414;8.050;2023-04-19T10:01:28;20.20;93.10
25188;DHT22;13141;50.414;8.050;2023-04-19T10:03:56;20.10;90.50
25188;DHT22;13141;50.414;8.050;2023-04-19T10:06:22;20.20;89.30
25188;DHT22;13141;50.414;8.050;2023-04-19T10:08:49;20.20;90.00
25188;DHT22;13141;50.414;8.050;2023-04-19T10:11:20;20.20;89.40
25188;DHT22;13141;50.414;8.050;2023-04-19T10:13:48;20.30;89.40
25188;DHT22;13141;50.414;8.050;2023-04-19T10:16:17;20.40;87.20
25188;DHT22;13141;50.414;8.050;2023-04-19T10:18:43;20.50;87.20
25188;DHT22;13141;50.414;8.050;2023-04-19T10:21:09;20.50;85.40
25188;DHT22;13141;50.414;8.050;2023-04-19T10:23:36;20.50;84.40
25188;DHT22;13141;50.414;8.050;2023-04-19T10:26:02;20.40;81.30
25188;DHT22;13141;50.414;8.050;2023-04-19T10:28:30;20.40;81.20
25188;DHT22;13141;50.414;8.050;2023-04-19T10:30:58;20.50;84.30
25188;DHT22;13141;50.414;8.050;2023-04-19T10:33:25;20.30;84.80
25188;DHT22;13141;50.414;8.050;2023-04-19T10:35:54;20.90;83.10
25188;DHT22;13141;50.414;8.050;2023-04-19T10:38:19;21.00;82.70
25188;DHT22;13141;50.414;8.050;2023-04-19T10:40:54;21.20;80.50
25188;DHT22;13141;50.414;8.050;2023-04-19T10:43:21;21.70;85.60
25188;DHT22;13141;50.414;8.050;2023-04-19T10:45:48;21.90;79.90
25188;DHT22;13141;50.414;8.050;2023-04-19T10:48:51;22.10;81.80
25188;DHT22;13141;50.414;8.050;2023-04-19T10:51:17;22.00;75.30
25188;DHT22;13141;50.414;8.050;2023-04-19T10:54:02;22.00;75.90
25188;DHT22;13141;50.414;8.050;2023-04-19T10:56:56;22.20;80.00
25188;DHT22;13141;50.414;8.050;2023-04-19T10:59:22;22.10;74.40
25188;DHT22;13141;50.414;8.050;2023-04-19T11:01:54;21.80;74.50
25188;DHT22;13141;50.414;8.050;2023-04-19T11:04:22;21.50;73.70
25188;DHT22;13141;50.414;8.050;2023-04-19T11:07:00;21.40;74.00
25188;DHT22;13141;50.414;8.050;2023-04-19T11:09:28;21.80;75.80
25188;DHT22;13141;50.414;8.050;2023-04-19T11:11:57;22.10;79.60
25188;DHT22;13141;50.414;8.050;2023-04-19T11:14:23;22.30;76.20
25188;DHT22;13141;50.414;8.050;2023-04-19T11:16:51;22.60;73.70
25188;DHT22;13141;50.414;8.050;2023-04-19T11:19:17;22.80;74.20
25188;DHT22;13141;50.414;8.050;2023-04-19T11:21:44;22.80;74.70
25188;DHT22;13141;50.414;8.050;2023-04-19T11:24:11;22.60;71.00
25188;DHT22;13141;50.414;8.050;2023-04-19T11:26:37;22.50;73.70
25188;DHT22;13141;50.414;8.050;2023-04-19T11:29:03;22.80;73.30
25188;DHT22;13141;50.414;8.050;2023-04-19T11:31:31;23.20;75.20
25188;DHT22;13141;50.414;8.050;2023-04-19T11:33:59;23.50;70.60
25188;DHT22;13141;50.414;8.050;2023-04-19T11:36:25;23.80;70.10
25188;DHT22;13141;50.414;8.050;2023-04-19T11:38:51;24.10;66.60
25188;DHT22;13141;50.414;8.050;2023-04-19T11:41:17;24.00;68.10
25188;DHT22;13141;50.414;8.050;2023-04-19T11:43:43;24.10;69.10
25188;DHT22;13141;50.414;8.050;2023-04-19T11:46:09;23.80;67.00
25188;DHT22;13141;50.414;8.050;2023-04-19T11:48:35;23.90;66.40
25188;DHT22;13141;50.414;8.050;2023-04-19T11:51:03;23.80;60.20
25188;DHT22;13141;50.414;8.050;2023-04-19T11:53:30;24.00;61.20
25188;DHT22;13141;50.414;8.050;2023-04-19T11:56:03;24.50;63.60
25188;DHT22;13141;50.414;8.050;2023-04-19T11:58:30;24.60;62.80
25188;DHT22;13141;50.414;8.050;2023-04-19T12:00:56;24.80;60.30
25188;DHT22;13141;50.414;8.050;2023-04-19T12:03:23;24.90;61.80
25188;DHT22;13141;50.414;8.050;2023-04-19T12:05:53;25.20;61.20
25188;DHT22;13141;50.414;8.050;2023-04-19T12:08:29;25.40;62.60
25188;DHT22;13141;50.414;8.050;2023-04-19T12:10:55;25.50;54.20
25188;DHT22;13141;50.414;8.050;2023-04-19T12:13:21;25.50;58.10
25188;DHT22;13141;50.414;8.050;2023-04-19T12:15:46;25.50;55.70
25188;DHT22;13141;50.414;8.050;2023-04-19T12:18:12;25.50;52.10
25188;DHT22;13141;50.414;8.050;2023-04-19T12:20:47;25.60;52.00
25188;DHT22;13141;50.414;8.050;2023-04-19T12:23:13;25.70;52.20
25188;DHT22;13141;50.414;8.050;2023-04-19T12:25:40;25.70;52.80
25188;DHT22;13141;50.414;8.050;2023-04-19T12:28:06;25.80;53.70
25188;DHT22;13141;50.414;8.050;2023-04-19T12:30:32;25.80;52.70
25188;DHT22;13141;50.414;8.050;2023-04-19T12:32:58;25.70;53.70
25188;DHT22;13141;50.414;8.050;2023-04-19T12:35:25;25.90;51.30
25188;DHT22;13141;50.414;8.050;2023-04-19T12:37:52;26.10;51.30
25188;DHT22;13141;50.414;8.050;2023-04-19T12:40:18;26.20;50.50
25188;DHT22;13141;50.414;8.050;2023-04-19T12:42:45;26.20;51.50
25188;DHT22;13141;50.414;8.050;2023-04-19T12:45:11;26.20;51.90
25188;DHT22;13141;50.414;8.050;2023-04-19T12:47:37;26.50;52.50
25188;DHT22;13141;50.414;8.050;2023-04-19T12:50:03;26.50;52.70
25188;DHT22;13141;50.414;8.050;2023-04-19T12:52:29;26.80;50.70
25188;DHT22;13141;50.414;8.050;2023-04-19T12:54:54;26.80;49.30
25188;DHT22;13141;50.414;8.050;2023-04-19T12:57:20;26.70;50.40
25188;DHT22;13141;50.414;8.050;2023-04-19T12:59:48;26.80;50.30
25188;DHT22;13141;50.414;8.050;2023-04-19T13:02:14;27.00;48.60
25188;DHT22;13141;50.414;8.050;2023-04-19T13:04:39;27.00;48.70
25188;DHT22;13141;50.414;8.050;2023-04-19T13:07:05;27.10;48.30
25188;DHT22;13141;50.414;8.050;2023-04-19T13:09:31;27.20;48.70
25188;DHT22;13141;50.414;8.050;2023-04-19T13:11:56;27.10;47.30
25188;DHT22;13141;50.414;8.050;2023-04-19T13:14:22;27.20;47.50
25188;DHT22;13141;50.414;8.050;2023-04-19T13:16:49;27.20;45.60
25188;DHT22;13141;50.414;8.050;2023-04-19T13:19:15;27.20;48.30
25188;DHT22;13141;50.414;8.050;2023-04-19T13:21:41;27.30;44.00
25188;DHT22;13141;50.414;8.050;2023-04-19T13:24:07;27.40;46.20
25188;DHT22;13141;50.414;8.050;2023-04-19T13:26:33;27.60;45.90
25188;DHT22;13141;50.414;8.050;2023-04-19T13:28:58;27.60;42.70
25188;DHT22;13141;50.414;8.050;2023-04-19T13:31:24;27.60;44.50
25188;DHT22;13141;50.414;8.050;2023-04-19T13:33:52;27.50;42.00
25188;DHT22;13141;50.414;8.050;2023-04-19T13:36:18;27.60;42.70
25188;DHT22;13141;50.414;8.050;2023-04-19T13:38:45;27.80;43.30
25188;DHT22;13141;50.414;8.050;2023-04-19T13:41:11;27.60;40.10
25188;DHT22;13141;50.414;8.050;2023-04-19T13:43:37;27.50;41.40
25188;DHT22;13141;50.414;8.050;2023-04-19T13:46:02;27.40;40.30
25188;DHT22;13141;50.414;8.050;2023-04-19T13:48:28;27.40;41.50
25188;DHT22;13141;50.414;8.050;2023-04-19T13:50:56;27.50;42.10
25188;DHT22;13141;50.414;8.050;2023-04-19T13:53:22;28.00;41.50
25188;DHT22;13141;50.414;8.050;2023-04-19T13:55:48;27.90;41.40
25188;DHT22;13141;50.414;8.050;2023-04-19T13:58:14;27.90;38.60
25188;DHT22;13141;50.414;8.050;2023-04-19T14:00:40;27.80;39.40
25188;DHT22;13141;50.414;8.050;2023-04-19T14:03:06;27.60;40.50
25188;DHT22;13141;50.414;8.050;2023-04-19T14:05:32;27.30;37.90
25188;DHT22;13141;50.414;8.050;2023-04-19T14:07:59;27.30;37.30
25188;DHT22;13141;50.414;8.050;2023-04-19T14:10:25;27.40;38.90
25188;DHT22;13141;50.414;8.050;2023-04-19T14:12:51;27.00;38.60
25188;DHT22;13141;50.414;8.050;2023-04-19T14:15:17;27.20;40.90
25188;DHT22;13141;50.414;8.050;2023-04-19T14:17:42;27.30;40.00
25188;DHT22;13141;50.414;8.050;2023-04-19T14:20:08;27.40;39.50
25188;DHT22;13141;50.414;8.050;2023-04-19T14:22:34;27.20;38.10
25188;DHT22;13141;50.414;8.050;2023-04-19T14:25:01;27.30;39.80
25188;DHT22;13141;50.414;8.050;2023-04-19T14:27:27;27.50;41.00
25188;DHT22;13141;50.414;8.050;2023-04-19T14:29:52;27.50;39.80
25188;DHT22;13141;50.414;8.050;2023-04-19T14:32:18;27.50;39.90
25188;DHT22;13141;50.414;8.050;2023-04-19T14:34:44;27.60;38.00
25188;DHT22;13141;50.414;8.050;2023-04-19T14:37:09;27.60;39.80
25188;DHT22;13141;50.414;8.050;2023-04-19T14:39:35;27.70;38.40
25188;DHT22;13141;50.414;8.050;2023-04-19T14:42:02;27.70;37.90
25188;DHT22;13141;50.414;8.050;2023-04-19T14:44:31;27.60;36.90
25188;DHT22;13141;50.414;8.050;2023-04-19T14:46:57;27.60;37.50
25188;DHT22;13141;50.414;8.050;2023-04-19T14:49:23;27.70;36.70
25188;DHT22;13141;50.414;8.050;2023-04-19T14:51:50;27.60;37.30
25188;DHT22;13141;50.414;8.050;2023-04-19T14:54:16;27.30;37.60
25188;DHT22;13141;50.414;8.050;2023-04-19T14:56:41;27.10;35.80
25188;DHT22;13141;50.414;8.050;2023-04-19T14:59:08;26.90;36.30
25188;DHT22;13141;50.414;8.050;2023-04-19T15:01:34;26.20;36.40
25188;DHT22;13141;50.414;8.050;2023-04-19T15:04:00;26.10;37.40
25188;DHT22;13141;50.414;8.050;2023-04-19T15:06:26;25.60;38.10
25188;DHT22;13141;50.414;8.050;2023-04-19T15:08:51;25.20;38.60
25188;DHT22;13141;50.414;8.050;2023-04-19T15:11:17;25.30;39.60
25188;DHT22;13141;50.414;8.050;2023-04-19T15:13:43;25.50;41.30
25188;DHT22;13141;50.414;8.050;2023-04-19T15:16:10;25.30;38.90
25188;DHT22;13141;50.414;8.050;2023-04-19T15:18:36;25.10;38.40
25188;DHT22;13141;50.414;8.050;2023-04-19T15:21:02;25.30;39.50
25188;DHT22;13141;50.414;8.050;2023-04-19T15:23:27;25.60;35.50
25188;DHT22;13141;50.414;8.050;2023-04-19T15:25:54;25.20;38.10